Casselton, North Dakota
Current Conditions -  °F | °C
As of 8:53 AM on Tuesday 21 Oct 2014 (Local Time) from KFAR Reporting Station
Clear Clear  
Wind Chill: 39°   Ceiling: Unl
Heat Index: 46°   Visibility: 10mi
Dew Point: 38°   Wind: 17mph
Humidity: 73%   Direction: 140°SE
Pressure: 30.02"   Gusts: 28mph
Location:  46.9°N, 97.21°W
Report Text: KFAR 211353Z 14015G24KT 10SM CLR 08/03 A3002 RMK AO2 SLP172 T00780033
Loading
Personal Weather Stations






























Interactive Weather Map New forecast layout! Learn more

10-Day Weather Forecast

Advertisements
Track Severe Weather on mobile